Time;durP1;ratioP1;P1;durP2;ratioP2;P2;SDS_P1;SDS_P2;PMS_P1;PMS_P2;Temp;Humidity;BMP_temperature;BMP_pressure;BME280_temperature;BME280_humidity;BME280_pressure;Samples;Min_cycle;Max_cycle;Signal;HPM_P1;HPM_P2
2022/05/03 00:01:36;;;;;;;11.63;8.00;;;11.50;98.10;;;;;;5199229;28;20434;-54
2022/05/03 00:04:12;;;;;;;7.30;6.40;;;11.50;97.50;;;;;;5200250;28;20462;-55
2022/05/03 00:07:05;;;;;;;6.50;5.63;;;11.50;97.10;;;;;;5199923;28;20439;-55
2022/05/03 00:10:09;;;;;;;7.23;5.90;;;11.50;97.00;;;;;;5174692;28;20439;-56
2022/05/03 00:13:04;;;;;;;6.37;5.43;;;11.50;96.90;;;;;;5190026;28;20434;-53
2022/05/03 00:15:38;;;;;;;6.47;5.87;;;11.50;96.70;;;;;;5182211;28;20434;-55
2022/05/03 00:18:08;;;;;;;5.67;5.17;;;11.50;96.40;;;;;;5178961;28;20489;-54
2022/05/03 00:20:39;;;;;;;7.70;5.37;;;11.50;96.50;;;;;;5189483;28;20431;-54
2022/05/03 00:23:10;;;;;;;6.17;5.40;;;11.50;96.60;;;;;;5188526;28;20663;-52
2022/05/03 00:25:41;;;;;;;5.93;4.97;;;11.50;96.60;;;;;;5180810;28;20470;-53
2022/05/03 00:28:13;;;;;;;9.47;5.00;;;11.60;96.70;;;;;;5203264;28;20290;-54
2022/05/03 00:30:44;;;;;;;6.50;5.77;;;11.60;96.50;;;;;;5204641;28;20441;-54
2022/05/03 00:33:16;;;;;;;5.30;4.80;;;11.50;96.60;;;;;;5213186;28;20427;-54
2022/05/03 00:35:47;;;;;;;5.33;4.77;;;11.50;96.90;;;;;;5187055;28;20329;-53
2022/05/03 00:38:17;;;;;;;6.33;5.70;;;11.50;97.00;;;;;;5187685;28;20450;-55
2022/05/03 00:40:55;;;;;;;5.60;5.10;;;11.50;97.10;;;;;;5192815;28;20847;-54
2022/05/03 00:43:53;;;;;;;6.23;5.23;;;11.50;97.10;;;;;;5198117;28;20273;-54
2022/05/03 00:46:28;;;;;;;5.53;5.20;;;11.50;97.10;;;;;;5198299;28;20438;-53
2022/05/03 00:49:14;;;;;;;6.03;5.53;;;11.30;97.20;;;;;;5189075;28;20453;-54
2022/05/03 00:51:52;;;;;;;10.23;5.83;;;11.30;97.30;;;;;;5201865;28;20541;-56
2022/05/03 00:54:49;;;;;;;6.27;5.77;;;11.10;97.30;;;;;;5201848;28;20442;-52
2022/05/03 00:57:40;;;;;;;12.53;5.37;;;11.00;98.10;;;;;;5190067;28;20462;-55
2022/05/03 01:00:14;;;;;;;6.53;5.97;;;10.90;99.10;;;;;;5208015;28;20963;-55
2022/05/03 01:02:57;;;;;;;7.00;6.30;;;10.80;99.70;;;;;;5202628;28;20446;-55
2022/05/03 01:05:35;;;;;;;7.50;6.23;;;10.80;99.70;;;;;;5200479;28;20796;-54
2022/05/03 01:08:11;;;;;;;7.43;6.37;;;10.70;99.90;;;;;;5204828;28;20460;-54
2022/05/03 01:11:01;;;;;;;6.60;6.00;;;10.60;99.90;;;;;;5199075;28;20899;-55
2022/05/03 02:43:19;;;;;;;7.50;6.60;;;9.50;99.90;;;;;;5201970;28;20395;-52
2022/05/03 02:45:56;;;;;;;6.93;6.37;;;9.40;99.90;;;;;;5189509;28;20471;-54
2022/05/03 02:48:43;;;;;;;13.93;6.10;;;9.40;99.90;;;;;;5203687;28;20457;-52
2022/05/03 02:51:16;;;;;;;28.90;6.20;;;9.40;99.90;;;;;;5181489;28;20439;-53
2022/05/03 02:53:58;;;;;;;9.43;6.43;;;9.40;99.90;;;;;;5167862;28;20538;-54
2022/05/03 02:56:47;;;;;;;7.50;5.50;;;9.30;99.90;;;;;;5206512;28;20437;-54
2022/05/03 03:01:47;;;;;;;7.67;6.57;;;9.30;99.90;;;;;;5197636;28;20482;-55
2022/05/03 03:02:35;;;;;;;7.80;6.70;;;9.30;99.90;;;;;;5205612;28;20433;-55
2022/05/03 03:05:08;;;;;;;7.03;6.20;;;9.30;99.90;;;;;;5182293;28;20458;-53
2022/05/03 03:07:48;;;;;;;12.20;7.53;;;9.30;99.90;;;;;;5187756;28;20480;-53
2022/05/03 03:10:29;;;;;;;8.70;6.60;;;9.20;99.90;;;;;;5198855;28;20955;-53
2022/05/03 03:13:11;;;;;;;8.30;7.37;;;9.20;99.90;;;;;;5197302;28;20903;-52
2022/05/03 03:15:42;;;;;;;6.90;6.00;;;9.20;99.90;;;;;;5200003;28;20469;-53
2022/05/03 03:18:16;;;;;;;7.27;6.63;;;9.20;99.90;;;;;;5195149;28;20555;-51
2022/05/03 03:20:54;;;;;;;7.73;6.10;;;9.20;99.90;;;;;;5195727;28;20655;-51
2022/05/03 03:23:30;;;;;;;9.13;6.20;;;9.20;99.90;;;;;;5193461;28;20450;-51
2022/05/03 03:26:01;;;;;;;9.70;6.97;;;9.20;99.90;;;;;;5202100;28;20433;-51
2022/05/03 03:28:34;;;;;;;10.13;7.17;;;9.20;99.90;;;;;;5195768;28;20933;-51
2022/05/03 03:31:06;;;;;;;9.73;6.80;;;9.20;99.90;;;;;;5189906;28;20815;-51
2022/05/03 03:33:37;;;;;;;10.73;7.10;;;9.20;99.90;;;;;;5216072;28;20436;-54
2022/05/03 03:36:10;;;;;;;9.00;6.83;;;9.20;99.90;;;;;;5187725;28;20780;-52
2022/05/03 03:38:45;;;;;;;6.80;5.80;;;9.10;99.90;;;;;;5200825;28;20454;-52
2022/05/03 03:41:16;;;;;;;7.00;5.60;;;9.20;99.90;;;;;;5174579;28;20476;-51
2022/05/03 03:43:47;;;;;;;8.77;6.13;;;9.20;99.90;;;;;;5195081;28;20901;-52
2022/05/03 03:46:17;;;;;;;7.40;5.87;;;9.20;99.90;;;;;;5199293;28;20183;-52
2022/05/03 03:48:48;;;;;;;7.60;6.57;;;9.10;99.90;;;;;;5194458;28;20211;-51
2022/05/03 03:51:19;;;;;;;7.67;6.77;;;9.10;99.90;;;;;;5194965;28;20278;-52
2022/05/03 03:53:52;;;;;;;9.63;6.83;;;9.10;99.90;;;;;;5181579;28;20226;-51
2022/05/03 03:56:22;;;;;;;6.50;5.80;;;9.20;99.90;;;;;;5188105;28;20193;-52
2022/05/03 03:58:53;;;;;;;9.73;5.77;;;9.20;99.90;;;;;;5201779;28;20462;-53
2022/05/03 04:01:25;;;;;;;22.40;7.03;;;9.20;99.90;;;;;;5197097;28;20280;-53
2022/05/03 04:03:55;;;;;;;8.43;6.67;;;9.10;99.90;;;;;;5178370;28;20479;-52
2022/05/03 04:06:26;;;;;;;8.40;6.00;;;9.10;99.90;;;;;;5193764;28;20438;-52
2022/05/03 04:08:57;;;;;;;8.70;6.80;;;9.30;99.90;;;;;;5205890;28;20210;-52
2022/05/03 04:11:27;;;;;;;7.73;6.47;;;9.20;99.90;;;;;;5213004;28;20175;-52
2022/05/03 04:13:58;;;;;;;10.80;6.27;;;9.20;99.90;;;;;;5208236;28;20188;-49
2022/05/03 04:16:28;;;;;;;9.37;6.17;;;9.20;99.90;;;;;;5208911;28;20333;-50
2022/05/03 04:18:58;;;;;;;9.33;6.13;;;9.30;99.90;;;;;;5194526;28;20871;-51
2022/05/03 04:21:29;;;;;;;5.90;5.30;;;9.40;99.90;;;;;;5204658;28;20180;-52
2022/05/03 04:24:00;;;;;;;12.87;5.93;;;9.50;99.90;;;;;;5184020;28;20258;-53
2022/05/03 04:26:30;;;;;;;15.47;6.30;;;9.60;99.90;;;;;;5199703;28;20214;-51
2022/05/03 04:29:03;;;;;;;9.60;6.10;;;9.70;99.90;;;;;;5198969;28;20203;-51
2022/05/03 04:31:35;;;;;;;7.10;5.70;;;9.70;99.90;;;;;;5197260;28;20308;-53
2022/05/03 04:34:05;;;;;;;7.57;5.90;;;9.80;99.90;;;;;;5204521;28;20934;-53
2022/05/03 04:36:36;;;;;;;6.80;5.17;;;9.90;99.90;;;;;;5182838;28;20472;-52
2022/05/03 04:39:06;;;;;;;8.07;5.20;;;10.00;99.90;;;;;;5207400;28;20226;-51
2022/05/03 04:41:37;;;;;;;7.87;5.50;;;10.10;99.90;;;;;;5179648;28;20180;-50
2022/05/03 04:44:07;;;;;;;6.60;5.20;;;10.20;99.90;;;;;;5197279;28;20687;-55
2022/05/03 04:46:38;;;;;;;5.13;4.70;;;10.30;99.90;;;;;;5201656;28;20187;-53
2022/05/03 04:49:08;;;;;;;9.20;5.47;;;10.40;99.90;;;;;;5185304;28;20199;-53
2022/05/03 04:51:39;;;;;;;6.23;5.40;;;10.50;99.90;;;;;;5182935;28;20176;-53
2022/05/03 04:54:10;;;;;;;5.90;4.57;;;10.60;99.90;;;;;;5192038;28;20196;-53
2022/05/03 04:56:47;;;;;;;7.90;5.43;;;10.60;99.90;;;;;;5190187;28;20182;-52
2022/05/03 04:59:17;;;;;;;10.13;6.37;;;10.60;99.90;;;;;;5191571;28;20341;-52
2022/05/03 05:01:48;;;;;;;6.37;5.83;;;10.60;99.90;;;;;;5188795;28;20533;-53
2022/05/03 05:04:18;;;;;;;8.07;5.40;;;10.60;99.90;;;;;;5176016;28;20584;-51
2022/05/03 05:06:49;;;;;;;5.53;5.03;;;10.70;99.90;;;;;;5195766;28;20703;-52
2022/05/03 05:09:20;;;;;;;4.97;4.40;;;10.60;99.90;;;;;;5183498;28;20211;-52
2022/05/03 05:11:51;;;;;;;6.13;4.53;;;10.70;99.90;;;;;;5198952;28;20175;-52
2022/05/03 05:14:22;;;;;;;23.47;4.97;;;10.70;99.90;;;;;;5192946;28;20188;-52
2022/05/03 05:16:52;;;;;;;4.37;4.07;;;10.80;99.90;;;;;;5192270;28;20442;-51
2022/05/03 05:19:23;;;;;;;10.60;5.10;;;10.90;99.80;;;;;;5179495;28;20199;-52
2022/05/03 05:21:53;;;;;;;7.37;4.30;;;11.10;98.80;;;;;;5198035;28;20184;-52
2022/05/03 05:24:24;;;;;;;7.90;4.70;;;11.20;96.80;;;;;;5196581;28;20295;-51
2022/05/03 05:26:54;;;;;;;10.17;5.03;;;11.20;96.10;;;;;;5161547;28;20644;-52
2022/05/03 05:29:25;;;;;;;7.00;4.50;;;11.30;95.90;;;;;;5196660;28;20262;-52
2022/05/03 05:31:55;;;;;;;13.73;3.40;;;11.40;95.10;;;;;;5201217;28;20180;-52
2022/05/03 05:34:25;;;;;;;4.10;3.30;;;11.50;94.40;;;;;;5200157;28;20242;-54
2022/05/03 05:36:56;;;;;;;2.93;2.73;;;11.50;90.30;;;;;;5192973;28;20192;-53
2022/05/03 05:39:27;;;;;;;4.37;4.00;;;11.60;89.10;;;;;;5173607;28;20190;-53
2022/05/03 05:41:59;;;;;;;7.83;3.70;;;11.60;83.90;;;;;;5176215;28;20187;-54
2022/05/03 05:44:29;;;;;;;5.60;3.43;;;11.60;85.70;;;;;;5173340;28;20218;-54
2022/05/03 05:47:00;;;;;;;3.33;3.00;;;11.60;81.20;;;;;;5178265;28;20430;-54
2022/05/03 05:49:31;;;;;;;4.00;3.20;;;11.70;78.60;;;;;;5180429;28;20171;-54
2022/05/03 05:54:51;;;;;;;4.93;3.00;;;11.80;75.40;;;;;;5200661;28;20210;-55
2022/05/03 05:57:21;;;;;;;5.70;3.20;;;11.90;74.40;;;;;;5183915;28;20797;-53
2022/05/03 05:59:52;;;;;;;3.23;2.93;;;12.00;73.20;;;;;;5179223;28;20180;-53
2022/05/03 06:02:22;;;;;;;3.47;2.67;;;12.10;72.30;;;;;;5183609;28;20192;-53
2022/05/03 06:04:53;;;;;;;5.30;2.90;;;12.20;70.50;;;;;;5202407;28;20203;-54
2022/05/03 06:07:23;;;;;;;6.23;2.87;;;12.40;68.60;;;;;;5195270;28;20211;-52
2022/05/03 06:09:54;;;;;;;8.00;2.90;;;12.60;67.00;;;;;;5193656;28;20250;-51
2022/05/03 06:12:25;;;;;;;9.40;2.97;;;12.70;64.70;;;;;;5167288;28;20652;-52
2022/05/03 06:14:55;;;;;;;4.30;2.40;;;12.80;63.60;;;;;;5200388;28;20578;-51
2022/05/03 06:17:26;;;;;;;2.73;2.53;;;12.80;63.10;;;;;;5203366;28;20291;-54
2022/05/03 06:19:57;;;;;;;3.20;2.30;;;12.80;62.10;;;;;;5201019;28;20279;-55
2022/05/03 06:22:27;;;;;;;5.80;3.40;;;13.00;61.70;;;;;;5187559;28;20275;-51
2022/05/03 06:24:58;;;;;;;4.37;2.70;;;13.60;60.00;;;;;;5201307;28;20466;-54
2022/05/03 06:27:29;;;;;;;4.93;3.17;;;14.60;56.20;;;;;;5168228;28;20203;-52
2022/05/03 06:29:59;;;;;;;25.07;3.43;;;14.90;54.30;;;;;;5198166;28;20189;-53
2022/05/03 06:32:30;;;;;;;13.97;3.10;;;15.20;54.20;;;;;;5197269;28;20623;-52
2022/05/03 06:35:00;;;;;;;2.33;2.20;;;17.20;50.20;;;;;;5198117;28;20179;-52
2022/05/03 06:37:38;;;;;;;5.90;2.37;;;19.80;43.20;;;;;;5195981;28;20305;-52
2022/05/03 06:40:10;;;;;;;6.47;2.40;;;22.20;38.30;;;;;;5199082;28;20256;-52
2022/05/03 06:42:41;;;;;;;10.93;2.47;;;24.50;34.20;;;;;;5202149;28;20432;-52
2022/05/03 06:45:11;;;;;;;3.17;1.60;;;26.30;30.40;;;;;;5175553;28;20469;-53
2022/05/03 06:47:42;;;;;;;4.03;2.23;;;27.50;28.80;;;;;;5196014;28;20457;-53
2022/05/03 06:50:13;;;;;;;4.47;2.80;;;28.40;27.10;;;;;;5179055;28;20185;-52
2022/05/03 06:52:44;;;;;;;9.10;2.30;;;29.10;26.20;;;;;;5185340;28;20215;-54
2022/05/03 06:55:15;;;;;;;21.67;3.73;;;29.20;24.60;;;;;;5197297;28;20566;-53
2022/05/03 06:57:46;;;;;;;54.23;4.47;;;28.90;24.80;;;;;;5189138;28;20709;-51
2022/05/03 07:00:16;;;;;;;10.73;2.40;;;28.50;25.10;;;;;;5179722;28;20453;-55
2022/05/03 07:02:47;;;;;;;15.00;2.20;;;27.50;25.60;;;;;;5185436;28;20218;-53
2022/05/03 07:05:18;;;;;;;5.40;2.77;;;27.30;26.70;;;;;;5196127;28;20245;-53
2022/05/03 07:07:48;;;;;;;4.40;2.50;;;28.20;25.70;;;;;;5179390;28;20230;-53
2022/05/03 07:10:19;;;;;;;8.80;2.17;;;28.20;25.40;;;;;;5190908;28;20192;-54
2022/05/03 07:12:49;;;;;;;4.73;2.33;;;27.50;26.00;;;;;;5167110;28;20714;-52
2022/05/03 07:15:20;;;;;;;2.67;2.00;;;27.40;25.50;;;;;;5196066;28;20184;-56
2022/05/03 07:23:29;;;;;;;2.70;2.33;;;27.80;25.70;;;;;;5193238;28;20455;-55
2022/05/03 07:25:59;;;;;;;5.33;1.70;;;28.50;25.20;;;;;;5199670;28;20819;-53
2022/05/03 07:28:30;;;;;;;8.03;1.73;;;28.30;24.60;;;;;;5190455;28;20571;-51
2022/05/03 07:31:00;;;;;;;1.97;1.80;;;27.90;25.30;;;;;;5176605;28;20686;-51
2022/05/03 07:33:32;;;;;;;3.53;2.17;;;27.80;24.70;;;;;;5177812;28;20190;-52
2022/05/03 07:36:03;;;;;;;2.90;1.53;;;26.70;25.70;;;;;;5197562;28;20187;-54
2022/05/03 07:38:34;;;;;;;4.00;1.77;;;24.60;27.20;;;;;;5197159;28;20453;-55
2022/05/03 07:41:06;;;;;;;4.53;2.13;;;23.60;28.80;;;;;;5185790;28;20434;-53
2022/05/03 07:43:36;;;;;;;1.17;1.07;;;23.90;28.00;;;;;;5197539;28;20437;-54
2022/05/03 07:46:07;;;;;;;1.40;1.30;;;25.60;25.90;;;;;;5202455;28;20478;-54
2022/05/03 07:48:37;;;;;;;1.50;1.50;;;25.90;25.00;;;;;;5200073;28;20576;-53
2022/05/03 07:51:11;;;;;;;1.93;1.83;;;24.70;26.50;;;;;;5196982;28;20608;-55
2022/05/03 07:53:42;;;;;;;1.50;1.50;;;23.50;27.20;;;;;;5191923;28;20191;-53
2022/05/03 07:56:12;;;;;;;1.53;1.43;;;23.50;28.30;;;;;;5192898;28;20442;-54
2022/05/03 07:58:43;;;;;;;1.17;1.17;;;25.00;27.60;;;;;;5194563;28;20666;-58
2022/05/03 08:01:13;;;;;;;1.73;1.63;;;26.50;25.70;;;;;;5194274;28;20199;-56
2022/05/03 08:03:44;;;;;;;1.70;1.40;;;27.70;24.70;;;;;;5184657;28;20191;-54
2022/05/03 08:06:15;;;;;;;1.77;1.67;;;28.70;23.80;;;;;;5196144;28;20196;-53
2022/05/03 08:08:45;;;;;;;2.73;1.43;;;29.60;22.70;;;;;;5189472;28;20235;-53
2022/05/03 08:11:16;;;;;;;22.10;3.87;;;30.20;23.00;;;;;;5180046;28;20192;-53
2022/05/03 08:13:48;;;;;;;2.63;2.20;;;30.70;22.30;;;;;;5195828;28;20187;-53
2022/05/03 08:16:20;;;;;;;15.53;2.90;;;30.70;22.20;;;;;;5181653;28;20644;-53
2022/05/03 08:18:50;;;;;;;4.97;2.20;;;30.40;22.60;;;;;;5196569;28;21002;-53
2022/05/03 08:21:21;;;;;;;2.37;2.20;;;30.60;22.60;;;;;;5195297;28;20430;-55
2022/05/03 08:23:52;;;;;;;1.83;1.73;;;30.90;21.80;;;;;;5188456;28;20654;-55
2022/05/03 08:26:22;;;;;;;2.00;1.90;;;30.80;22.40;;;;;;5190143;28;20176;-53
2022/05/03 08:28:53;;;;;;;3.23;1.63;;;31.10;21.90;;;;;;5175235;28;20671;-54
2022/05/03 08:31:23;;;;;;;9.03;2.97;;;30.70;22.30;;;;;;5174055;28;20607;-54
2022/05/03 08:33:54;;;;;;;13.43;2.90;;;29.80;22.60;;;;;;5175796;28;20730;-55
2022/05/03 08:36:24;;;;;;;10.60;2.10;;;29.20;23.40;;;;;;5191156;28;20181;-53
2022/05/03 08:42:06;;;;;;;2.93;2.13;;;27.10;24.20;;;;;;5204151;28;20187;-52
2022/05/03 08:44:36;;;;;;;7.00;3.13;;;26.00;25.20;;;;;;5199990;28;20512;-51
2022/05/03 08:47:07;;;;;;;3.07;2.00;;;25.40;26.40;;;;;;5182529;28;20477;-52
2022/05/03 08:49:55;;;;;;;8.43;4.20;;;24.60;26.60;;;;;;5183169;28;20176;-53
2022/05/03 08:52:28;;;;;;;2.30;2.20;;;24.10;27.40;;;;;;5189515;28;20183;-51
2022/05/03 08:55:00;;;;;;;2.40;2.20;;;23.30;28.10;;;;;;5198762;28;20430;-53
2022/05/03 08:57:31;;;;;;;1.53;1.43;;;22.70;28.50;;;;;;5179015;28;20469;-52
2022/05/03 09:00:05;;;;;;;2.03;1.73;;;22.70;29.00;;;;;;5187871;28;20439;-53
2022/05/03 09:02:44;;;;;;;7.37;2.97;;;22.20;29.30;;;;;;5202168;28;20205;-53
2022/05/03 09:05:16;;;;;;;6.03;3.00;;;21.20;29.70;;;;;;5184686;28;20465;-53
2022/05/03 09:07:51;;;;;;;2.07;1.97;;;20.40;30.50;;;;;;5194344;28;20493;-53
2022/05/03 09:10:23;;;;;;;2.30;2.20;;;19.60;31.60;;;;;;5184083;28;20436;-54
2022/05/03 09:12:57;;;;;;;6.03;1.97;;;19.10;32.50;;;;;;5186377;28;20439;-53
2022/05/03 09:15:33;;;;;;;2.27;2.17;;;18.80;33.40;;;;;;5183014;28;20435;-51
2022/05/03 09:18:04;;;;;;;1.97;1.40;;;18.60;33.90;;;;;;5238139;22;20503;-55
2022/05/03 09:26:14;;;;;;;2.83;1.90;;;18.10;34.60;;;;;;5246861;28;20840;-55
2022/05/03 09:28:48;;;;;;;5.43;2.53;;;18.10;34.50;;;;;;5237487;28;20576;-57
2022/05/03 09:31:35;;;;;;;1.43;1.30;;;18.20;34.60;;;;;;5223921;28;20446;-54
2022/05/03 09:34:25;;;;;;;4.67;1.60;;;18.20;34.50;;;;;;5226266;28;20517;-56
2022/05/03 09:37:05;;;;;;;3.23;1.80;;;18.20;34.50;;;;;;5227707;28;20869;-56
2022/05/03 09:39:45;;;;;;;3.73;2.43;;;18.30;34.70;;;;;;5219486;28;20425;-56
2022/05/03 09:42:18;;;;;;;2.03;1.80;;;18.20;34.80;;;;;;5214362;28;20429;-57
2022/05/03 09:45:02;;;;;;;7.50;2.13;;;18.00;34.20;;;;;;5222157;28;20500;-54
2022/05/03 09:47:47;;;;;;;4.83;2.37;;;17.90;34.50;;;;;;5232446;28;20461;-55
2022/05/03 09:50:37;;;;;;;1.60;1.40;;;18.00;34.40;;;;;;5216446;28;20432;-56
2022/05/03 09:53:16;;;;;;;3.03;2.07;;;18.10;33.80;;;;;;5214127;28;20446;-55
2022/05/03 09:55:48;;;;;;;4.80;2.13;;;18.10;33.60;;;;;;5215166;28;20442;-55
2022/05/03 09:58:19;;;;;;;1.77;1.67;;;18.00;34.00;;;;;;5215047;28;21053;-55
2022/05/03 10:00:50;;;;;;;18.17;13.07;;;17.80;33.60;;;;;;5217572;28;20438;-56
2022/05/03 10:03:21;;;;;;;13.40;7.70;;;17.50;33.40;;;;;;5228392;28;20435;-57
2022/05/03 10:05:52;;;;;;;15.90;5.23;;;17.40;33.10;;;;;;5226548;28;20211;-55
2022/05/03 10:08:23;;;;;;;7.40;2.10;;;17.50;33.20;;;;;;5201043;28;20464;-56
2022/05/03 10:10:57;;;;;;;22.20;4.27;;;17.60;32.80;;;;;;5199343;28;20175;-57
2022/05/03 10:13:27;;;;;;;53.67;14.20;;;17.60;32.20;;;;;;5223826;28;20442;-57
2022/05/03 10:21:50;;;;;;;1.83;1.73;;;17.80;31.40;;;;;;5211146;28;20429;-54
2022/05/03 10:24:22;;;;;;;1.60;1.50;;;17.70;32.50;;;;;;5217839;28;20465;-55
2022/05/03 10:26:52;;;;;;;1.80;1.70;;;17.50;33.40;;;;;;5218332;28;20435;-55
2022/05/03 10:29:24;;;;;;;1.33;1.33;;;17.50;33.70;;;;;;5220466;28;20458;-55
2022/05/03 10:32:15;;;;;;;5.00;2.70;;;17.60;34.00;;;;;;5222753;28;20204;-56
2022/05/03 10:34:59;;;;;;;1.60;1.50;;;17.70;33.50;;;;;;5226711;28;21003;-55
2022/05/03 10:37:30;;;;;;;3.53;2.37;;;17.60;34.10;;;;;;5233326;28;20439;-55
2022/05/03 10:40:08;;;;;;;2.90;1.30;;;17.50;33.60;;;;;;5222620;28;20441;-59
2022/05/03 10:42:39;;;;;;;1.10;1.10;;;17.40;34.00;;;;;;5223438;28;20441;-57
2022/05/03 10:45:12;;;;;;;2.20;1.30;;;17.40;34.00;;;;;;5216988;28;20476;-57
2022/05/03 10:47:53;;;;;;;1.00;0.87;;;17.40;32.40;;;;;;5221365;28;20465;-57
2022/05/03 10:50:36;;;;;;;2.00;1.43;;;17.40;32.20;;;;;;5225985;28;20895;-56
2022/05/03 10:53:18;;;;;;;1.90;1.27;;;17.40;31.50;;;;;;5213935;28;20508;-56
2022/05/03 10:56:09;;;;;;;4.53;1.63;;;17.50;31.80;;;;;;5218827;28;20437;-57
2022/05/03 10:58:41;;;;;;;2.40;1.10;;;17.50;31.90;;;;;;5219740;28;20594;-55
2022/05/03 11:01:23;;;;;;;1.90;1.13;;;17.60;31.80;;;;;;5212818;28;20560;-56
2022/05/03 11:03:54;;;;;;;4.93;3.73;;;17.60;31.60;;;;;;5214986;28;20525;-55
2022/05/03 11:06:25;;;;;;;2.20;0.90;;;17.60;31.80;;;;;;5218296;28;20433;-57
2022/05/03 11:11:44;;;;;;;0.77;0.77;;;17.70;31.90;;;;;;5216039;28;20215;-55
2022/05/03 11:14:18;;;;;;;3.20;2.83;;;17.80;32.00;;;;;;5212291;28;20434;-54
2022/05/03 11:16:52;;;;;;;11.13;7.60;;;17.80;32.10;;;;;;5215842;28;20525;-56
2022/05/03 11:19:24;;;;;;;1.87;1.77;;;17.80;32.20;;;;;;5224222;28;20485;-56
2022/05/03 11:21:56;;;;;;;4.10;1.23;;;17.70;33.10;;;;;;5217081;28;20519;-55
2022/05/03 11:24:32;;;;;;;3.23;2.93;;;17.60;33.20;;;;;;5219153;28;20566;-58
2022/05/03 11:27:08;;;;;;;12.07;7.60;;;17.70;33.60;;;;;;5229676;28;20432;-55
2022/05/03 11:29:46;;;;;;;1.80;1.70;;;17.80;33.40;;;;;;5218690;28;20440;-56
2022/05/03 11:32:27;;;;;;;2.27;1.30;;;17.90;33.20;;;;;;5219297;28;20519;-57
2022/05/03 11:35:02;;;;;;;1.00;1.00;;;17.90;33.20;;;;;;5215688;28;20793;-54
2022/05/03 11:37:36;;;;;;;4.63;2.67;;;17.90;33.40;;;;;;5211111;28;20457;-55
2022/05/03 11:40:08;;;;;;;2.43;2.30;;;17.80;33.60;;;;;;5220741;28;20515;-59
2022/05/03 11:42:42;;;;;;;1.60;1.60;;;17.70;33.80;;;;;;5219714;28;20459;-58
2022/05/03 11:45:14;;;;;;;1.40;0.73;;;17.80;34.00;;;;;;5226883;28;20551;-57
2022/05/03 11:47:47;;;;;;;1.17;0.70;;;17.80;33.60;;;;;;5221742;28;20461;-55
2022/05/03 11:56:08;;;;;;;0.50;0.50;;;18.20;33.80;;;;;;5217418;28;20904;-56
2022/05/03 11:58:40;;;;;;;1.20;1.20;;;18.30;33.70;;;;;;5217582;28;20552;-56
2022/05/03 12:01:13;;;;;;;1.10;1.10;;;18.60;34.00;;;;;;5220308;28;20955;-57
2022/05/03 12:03:58;;;;;;;1.40;1.30;;;18.90;33.90;;;;;;5225463;28;20429;-56
2022/05/03 12:06:43;;;;;;;2.00;0.70;;;18.90;33.10;;;;;;5221381;28;20445;-56
2022/05/03 12:09:18;;;;;;;0.93;0.70;;;18.60;33.00;;;;;;5218739;28;20466;-57
2022/05/03 12:14:45;;;;;;;1.00;0.80;;;17.90;34.00;;;;;;5213120;28;20477;-56
2022/05/03 12:17:18;;;;;;;2.60;1.20;;;17.80;34.80;;;;;;5223166;28;20489;-58
2022/05/03 12:20:00;;;;;;;2.83;0.83;;;17.80;35.00;;;;;;5226781;28;20623;-56
2022/05/03 12:22:32;;;;;;;0.67;0.67;;;18.00;34.70;;;;;;5240265;28;20457;-57
2022/05/03 12:25:04;;;;;;;1.00;1.00;;;18.20;34.80;;;;;;5220230;28;20593;-57
2022/05/03 12:27:34;;;;;;;1.20;0.83;;;18.20;34.10;;;;;;5222053;28;20454;-55
2022/05/03 12:30:11;;;;;;;0.63;0.63;;;18.20;34.30;;;;;;5222806;28;20452;-57
2022/05/03 12:32:42;;;;;;;0.53;0.53;;;18.20;34.60;;;;;;5217530;28;20190;-57
2022/05/03 12:35:14;;;;;;;1.00;0.70;;;18.30;34.90;;;;;;5230742;28;20919;-56
2022/05/03 12:37:51;;;;;;;6.33;0.83;;;18.30;34.80;;;;;;5254020;28;20312;-58
2022/05/03 12:40:26;;;;;;;1.10;0.80;;;18.50;35.20;;;;;;5214090;28;20453;-57
2022/05/03 12:43:28;;;;;;;0.50;0.50;;;18.70;33.90;;;;;;5221319;28;20444;-56
2022/05/03 12:46:03;;;;;;;1.00;0.80;;;18.70;33.10;;;;;;5220916;28;20559;-56
2022/05/03 12:48:38;;;;;;;2.03;0.70;;;18.60;34.00;;;;;;5226517;28;20479;-55
2022/05/03 12:51:10;;;;;;;5.63;0.87;;;18.60;34.50;;;;;;5225410;28;20437;-55
2022/05/03 12:53:47;;;;;;;2.23;0.93;;;18.70;34.60;;;;;;5229485;28;20526;-57
2022/05/03 12:59:08;;;;;;;5.43;2.00;;;19.30;33.60;;;;;;5228025;28;20456;-58
2022/05/03 13:01:39;;;;;;;1.13;1.13;;;19.70;33.30;;;;;;5221464;28;20429;-56
2022/05/03 13:04:10;;;;;;;2.20;2.00;;;19.80;33.00;;;;;;5226494;28;20614;-56
2022/05/03 13:06:41;;;;;;;1.90;1.80;;;20.00;33.10;;;;;;5220331;28;20470;-56
2022/05/03 13:09:12;;;;;;;0.60;0.60;;;20.10;32.90;;;;;;5227290;28;20202;-57
2022/05/03 13:11:44;;;;;;;1.07;0.90;;;20.20;32.80;;;;;;5226370;28;20942;-57
2022/05/03 13:14:16;;;;;;;0.80;0.80;;;20.30;33.10;;;;;;5228574;28;20237;-55
2022/05/03 13:16:48;;;;;;;1.80;1.70;;;20.60;32.40;;;;;;5233065;28;20436;-56
2022/05/03 13:19:19;;;;;;;1.40;1.40;;;20.50;32.50;;;;;;5220866;28;20621;-55
2022/05/03 13:21:51;;;;;;;1.87;1.77;;;20.30;32.60;;;;;;5225086;28;20843;-55
2022/05/03 13:24:22;;;;;;;1.17;0.70;;;20.20;32.10;;;;;;5221267;28;20207;-56
2022/05/03 13:26:52;;;;;;;3.83;2.50;;;20.40;32.40;;;;;;5214904;28;20844;-55
2022/05/03 13:29:23;;;;;;;1.70;0.80;;;20.30;32.50;;;;;;5226213;28;20710;-57
2022/05/03 13:31:54;;;;;;;0.90;0.90;;;20.20;32.10;;;;;;5228630;28;20182;-56
2022/05/03 13:34:24;;;;;;;2.20;1.73;;;20.20;31.90;;;;;;5224902;28;20186;-55
2022/05/03 13:42:33;;;;;;;1.93;1.93;;;20.50;35.50;;;;;;5217824;28;20444;-56
2022/05/03 13:45:04;;;;;;;2.77;2.57;;;20.40;35.90;;;;;;5219118;28;20469;-55
2022/05/03 13:47:35;;;;;;;3.03;1.33;;;20.20;36.50;;;;;;5220225;28;20198;-57
2022/05/03 13:50:07;;;;;;;2.97;1.47;;;19.90;36.80;;;;;;5212959;28;20437;-56
2022/05/03 13:52:38;;;;;;;2.30;2.20;;;19.70;37.60;;;;;;5221859;28;20194;-55
2022/05/03 13:55:09;;;;;;;2.00;1.27;;;19.40;38.20;;;;;;5219616;28;20438;-55
2022/05/03 13:57:39;;;;;;;2.40;1.37;;;19.10;38.70;;;;;;5240147;28;20214;-55
2022/05/03 14:00:10;;;;;;;1.20;1.20;;;18.90;39.20;;;;;;5230142;28;20444;-56
2022/05/03 14:02:43;;;;;;;6.40;1.37;;;18.90;39.40;;;;;;5214712;28;20226;-56
2022/05/03 14:05:13;;;;;;;1.33;1.23;;;18.90;39.90;;;;;;5229870;28;20214;-56
2022/05/03 14:07:44;;;;;;;1.60;1.20;;;19.00;40.20;;;;;;5218912;28;20547;-57
2022/05/03 14:10:14;;;;;;;2.13;1.60;;;18.90;40.20;;;;;;5212243;28;20192;-56
2022/05/03 14:12:45;;;;;;;1.30;1.30;;;18.80;40.40;;;;;;5218658;28;21779;-55
2022/05/03 14:15:16;;;;;;;2.70;1.50;;;18.60;39.80;;;;;;5225866;28;20598;-56
2022/05/03 14:17:47;;;;;;;3.47;1.40;;;18.50;40.30;;;;;;5221808;28;20273;-56
2022/05/03 14:20:18;;;;;;;2.30;1.40;;;18.40;40.50;;;;;;5228217;28;20875;-56
2022/05/03 14:22:49;;;;;;;2.00;2.00;;;18.50;40.50;;;;;;5221142;28;20225;-56
2022/05/03 14:25:23;;;;;;;1.00;1.00;;;18.70;40.60;;;;;;5220597;28;20453;-55
2022/05/03 14:27:53;;;;;;;2.93;2.70;;;18.60;40.60;;;;;;5221372;28;20721;-56
2022/05/03 14:30:25;;;;;;;1.97;1.87;;;18.80;40.60;;;;;;5220920;28;20565;-56
2022/05/03 14:32:55;;;;;;;1.30;1.30;;;18.80;40.60;;;;;;5223327;28;20203;-56
2022/05/03 14:35:26;;;;;;;2.00;1.30;;;19.00;40.50;;;;;;5232564;28;20449;-56
2022/05/03 14:37:56;;;;;;;0.83;0.83;;;19.20;40.20;;;;;;5217271;28;20298;-56
2022/05/03 14:40:28;;;;;;;2.07;1.97;;;19.20;39.80;;;;;;5227282;28;20567;-58
2022/05/03 14:43:02;;;;;;;2.30;0.90;;;19.10;39.70;;;;;;5232890;28;20187;-56
2022/05/03 14:45:37;;;;;;;1.67;1.67;;;19.00;40.20;;;;;;5210008;28;20490;-56
2022/05/03 14:48:08;;;;;;;2.10;1.30;;;19.00;40.20;;;;;;5222012;28;20456;-57
2022/05/03 14:50:39;;;;;;;1.43;1.43;;;19.00;40.30;;;;;;5233180;28;20421;-56
2022/05/03 14:53:10;;;;;;;1.73;1.37;;;19.00;40.50;;;;;;5222394;28;20472;-57
2022/05/03 15:02:51;;;;;;;1.47;1.37;;;18.90;40.50;;;;;;5231247;28;20461;-58
2022/05/03 15:04:09;;;;;;;7.73;1.57;;;19.10;39.90;;;;;;5224763;28;20577;-56
2022/05/03 15:06:41;;;;;;;1.20;1.20;;;19.00;40.30;;;;;;5233823;28;20867;-58
2022/05/03 15:09:13;;;;;;;7.87;1.70;;;18.90;40.70;;;;;;5224314;28;20306;-56
2022/05/03 15:11:44;;;;;;;1.53;1.43;;;18.90;40.90;;;;;;5222640;28;20824;-57
2022/05/03 15:14:14;;;;;;;2.87;1.80;;;18.90;40.70;;;;;;5225200;28;20186;-55
2022/05/03 15:16:45;;;;;;;4.70;1.27;;;19.00;40.90;;;;;;5226095;28;20182;-58
2022/05/03 15:19:16;;;;;;;1.77;1.67;;;18.80;40.80;;;;;;5240540;22;20699;-53
2022/05/03 15:21:46;;;;;;;1.93;1.67;;;18.70;41.00;;;;;;5185826;28;20208;-52
2022/05/03 15:24:35;;;;;;;4.10;1.67;;;18.60;41.30;;;;;;5213767;28;20191;-54
2022/05/03 15:27:08;;;;;;;1.00;1.00;;;18.50;41.70;;;;;;5199536;28;20179;-51
2022/05/03 15:29:40;;;;;;;9.83;1.83;;;18.40;41.90;;;;;;5205427;28;20504;-52
2022/05/03 15:32:31;;;;;;;2.03;1.93;;;18.40;42.20;;;;;;5201888;28;20524;-52
2022/05/03 15:35:04;;;;;;;2.43;2.33;;;18.30;42.30;;;;;;5204156;28;20445;-52
2022/05/03 15:37:36;;;;;;;3.03;2.10;;;18.30;42.60;;;;;;5202927;28;20521;-51
2022/05/03 15:40:09;;;;;;;1.73;1.63;;;18.30;42.50;;;;;;5202913;28;20446;-51